Nearby METAR Reports

 

EGFF - Cardiff-Wales Ar, United Kingdom
Distance from station: SW 17km
Updated: 19/02/2018 23:20
Clear
Clear
 Wind from NW
Wind: NW 17 km/h
Temperature: 8°C
Wind Chill: 5°C
Dew Point: 7°C
Humidity: 93%
Barometer: 1020 hPa
Clouds: Clear
Visibility: 10 km
2018/02/19 23:20 EGFF 192320Z AUTO 31009KT 9999 NCD 08/07 Q1020
EGDX - St Athan Raf, United Kingdom
Distance from station: SW 20km
Updated: 19/02/2018 22:50
Partly cloudy
Partly cloudy
 Wind from NW
Wind: NW 13 km/h
Temperature: 9°C
Wind Chill: 7°C
Dew Point: 7°C
Humidity: 87%
Barometer: 1019 hPa
Clouds: Partly cloudy
Visibility: 10 km
Cloud details: Mostly cloudy 1341 m
Partly cloudy 6096 m
2018/02/19 22:50 EGDX 192250Z AUTO 31007KT 9999 BKN044/// SCT200/// 09/07 Q1019
 
EGGD - Bristol/Lulsgate, United Kingdom
Distance from station: ESE 37km
Updated: 19/02/2018 23:20
Overcast
Overcast
 Wind from WNW
Wind: WNW 15 km/h
Temperature: 8°C
Wind Chill: 5°C
Dew Point: 6°C
Humidity: 87%
Barometer: 1019 hPa
Clouds: Overcast
Visibility: 10 km
Cloud details: Overcast 1250 m
2018/02/19 23:20 EGGD 192320Z AUTO 30008KT 9999 OVC041 08/06 Q1019
EGDY - Yeovilton (navy), United Kingdom
Distance from station: SE 69km
Updated: 19/02/2018 22:50
Mostly cloudy
Mostly cloudy
 Wind from NW
Wind: NW 13 km/h
Temperature: 9°C
Wind Chill: 7°C
Dew Point: 7°C
Humidity: 87%
Barometer: 1019 hPa
Clouds: Mostly cloudy
Visibility: 10 km
Cloud details: Mostly cloudy 1097 m
2018/02/19 22:50 EGDY 192250Z 31007KT 9999 BKN036 09/07 Q1019 BLU NOSIG